Aviation Digital Data Service (ADDS)

Output produced by METARs form (1153 UTC 28 April 2015)
found at http://www.aviationweather.gov/adds/metars/
 
KSEG 281053Z AUTO 32005KT 10SM SCT080 09/03 A2991 RMK AO2 SLP129 T00890028
KSEG 280953Z AUTO 34004KT 10SM CLR 07/03 A2989 RMK AO2 SLP124 T00670028
KSEG 280853Z AUTO 30009KT 10SM BKN090 09/03 A2988 RMK AO2 SLP119 T00890028 56000
KSEG 280753Z AUTO 31005KT 10SM BKN050 OVC090 09/03 A2988 RMK AO2 SLP119 T00940033
KSEG 280653Z AUTO 29003KT 10SM FEW037 BKN060 OVC095 09/03 A2988 RMK AO2 SLP117 T00890028
KSEG 280553Z AUTO 32005KT 10SM FEW046 OVC065 10/03 A2988 RMK AO2 SLP119 T01000028 10106 20083 50002
KSEG 280453Z AUTO 33006KT 10SM BKN038 OVC048 09/03 A2989 RMK AO2 SLP122 T00940028 401330044
KSEG 280353Z AUTO 34010KT 10SM OVC036 09/02 A2988 RMK AO2 SLP119 T00940022
KSEG 280253Z AUTO 33010KT 10SM SCT042 OVC060 10/01 A2987 RMK AO2 SLP117 T01000011 51012
KSEG 280153Z AUTO 34006KT 10SM BKN065 BKN100 09/01 A2987 RMK AO2 SLP118 T00890006
KSEG 280053Z AUTO 34008KT 10SM BKN050 09/01 A2987 RMK AO2 SLP115 T00940006
KSEG 272353Z AUTO 35008KT 10SM BKN055 11/02 A2984 RMK AO2 SLP106 T01060022 10133 20106 53021
KSEG 272253Z AUTO 34007KT 10SM FEW055 SCT065 OVC090 12/02 A2981 RMK AO2 SLP097 T01170022
KSEG 272153Z AUTO 32008KT 10SM SCT090 12/01 A2979 RMK AO2 SLP090 T01220011
KSEG 272053Z AUTO 32010KT 10SM OVC060 13/02 A2978 RMK AO2 SLP085 T01280017 55000
KSEG 271953Z AUTO 33008KT 10SM OVC070 12/00 A2977 RMK AO2 SLP084 T01220000
KSEG 271853Z AUTO 31008KT 10SM OVC065 12/01 A2978 RMK AO2 SLP085 T01220006
KSEG 271753Z AUTO 32008KT 10SM OVC060 12/00 A2978 RMK AO2 SLP085 T01170000 10133 20083 50002
KSEG 271653Z AUTO 33008KT 10SM BKN060 OVC080 12/01 A2978 RMK AO2 SLP086 T01220011
KSEG 271553Z AUTO 31006KT 10SM OVC060 12/01 A2978 RMK AO2 SLP084 T01220006
KSEG 271453Z AUTO 32007KT 10SM FEW050 SCT065 BKN080 11/01 A2977 RMK AO2 SLP084 T01110006 51003
KSEG 271353Z AUTO 34007G16KT 10SM BKN080 11/01 A2978 RMK AO2 SLP084 T01060011
KSEG 271253Z AUTO 34009KT 10SM OVC080 09/01 A2977 RMK AO2 SLP083 T00940011
KSEG 271153Z AUTO 31006KT 10SM OVC080 08/01 A2977 RMK AO2 SLP080 T00830011 10083 20050 53007
KSEG 271053Z AUTO 31005KT 10SM OVC080 07/02 A2975 RMK AO2 SLP076 T00670017
KSEG 270953Z AUTO 02003KT 10SM OVC075 06/02 A2974 RMK AO2 SLP074 T00560022
KSEG 270853Z AUTO 00000KT 10SM OVC070 06/02 A2974 RMK AO2 SLP072 T00610017 56006
KSEG 270753Z AUTO 00000KT 10SM SCT050 OVC080 06/03 A2975 RMK AO2 SLP074 T00560028
KSEG 270653Z AUTO 00000KT 10SM OVC070 06/01 A2975 RMK AO2 SLP074 T00560011
KSEG 270553Z AUTO 00000KT 10SM OVC075 05/02 A2976 RMK AO2 SLP079 T00500022 10111 20033 50000
KSEG 270453Z AUTO 00000KT 10SM OVC075 04/01 A2977 RMK AO2 SLP082 T00440011 401611006
KSEG 270353Z AUTO 34003KT 10SM BKN080 04/01 A2976 RMK AO2 SLP080 T00390006
KSEG 270253Z AUTO 00000KT 10SM CLR 04/M01 A2976 RMK AO2 SLP080 T00441006 51007
KSEG 270153Z AUTO 35003KT 10SM CLR 08/M01 A2976 RMK AO2 SLP078 T00831011
KSEG 270053Z AUTO 01009KT 10SM CLR 10/M02 A2975 RMK AO2 SLP076 T01001017